メインページ
METAR-TAF:

METAR-TAF

空港 :

Griffiss_Air_Force_Base

Rome, ニューヨーク, アメリカ合衆国

緯度: 43-14N, 経度: 075-24W, 海抜: 154m

現時点の気象観測

当レポートは1時間0分前の17:53(UTC)に作成
西の風 7kt
気温 30°C
湿度 66%
気圧 1011 hPa
視程: 16.1km
高度3400ftの千切れ雲あり
高度6000ftの曇り

METAR: KRME 191753Z 27007KT 10SM BKN034 OVC060 30/23 A2984 RMK AO2 SLP101 T03000228 10306 20239 55003

時間: 14:53 (18:53 UTC)

予報

当レポートは1時間28分前の17:25(UTC)に作成
予報は19日の 18時(UTC)から 20日の 18時(UTC)まで有効
西の風 10kt
視程: 10km
高度3000ftの雲は散在している
高度6000ftの千切れ雲あり
19日の 23時(UTC)から 20日の 03時(UTC)まで一時的に
高度4000ftの千切れ雲あり, 積乱雲.
激しい雷雨, 雨
20日の 0900時(UTC)から
変向風 3kt
視程: 8.0km
高度2500ftの千切れ雲あり
20日の 1400時(UTC)から
西/南西の風 6kt
視程: 10km
高度3000ftの雲は散在している
高度5000ftの千切れ雲あり

TAF: KRME 191725Z 1918/2018 26010KT P6SM SCT030 BKN060 TEMPO 1923/2003 TSRA BKN040CB FM200900 VRB03KT 5SM BR BKN025 FM201400 25006KT P6SM SCT030 BKN050

4,000以上の空港の気象観測と天気予報(METAR報とTAF報)

利用可能な観測所は地図上に黄色い丸と赤い丸で示す。

丸の上にカーソルを重ねると観測所名を参照できる。

次にクリックすると気象観測と天気予報を参照できる。

マップの切り替え:黒色「×」印の緑ボタンをクリックして拡大、「-」印の緑ボタンをクリックして縮小、緑色の三角印をクリックして隣りの地図に切り替え


METAR-TAF: